Latest Weather Observations for Hopetoun North

IDW60801

Issued at 6:05 pm WST Thursday 2 October 2014 (issued every 30 minutes, with the page automatically refreshed every 10 minutes)

About weather observations | Map of weather stations | Latest weather observations for WA | Other Formats
Station Details ID: 009961 Name: HOPETOUN NORTH Lat: -33.93 Lon: 120.13 Height: 26.0 m
Data from the previous 72 hours. | See also: Recent months at Hopetoun North
Date/Time
WST
Temp
°C
App
Temp
°C
Dew
Point
Rel
Hum
%
Delta-T
°C
Wind Press
QNH
hPa
Press
MSL
hPa
Rain
since 9 am
mm
Dir
 
Spd
km/h
Gust
km/h
Spd
kts
Gust
kts
02/06:00pm 18.9 17.4 11.9 64 3.9 E 11 19 6 10 1008.8 1008.8 0.0
02/05:30pm 18.4 15.9 14.1 76 2.5 E 20 26 11 14 1008.7 1008.7 0.0
02/05:00pm 18.8 15.2 14.3 75 2.6 ESE 26 39 14 21 1008.7 1008.7 0.0
02/04:30pm 19.1 16.2 14.1 73 2.9 SE 22 32 12 17 1008.6 1008.6 0.0
02/04:00pm 19.2 15.1 12.7 66 3.7 ESE 26 37 14 20 1008.6 1008.6 0.0
02/03:30pm 20.4 16.8 12.9 62 4.3 ESE 24 35 13 19 1008.8 1008.8 0.0
02/03:00pm 19.8 16.0 12.3 62 4.2 ESE 24 37 13 20 1008.9 1008.9 0.0
02/02:37pm 23.9 20.7 11.3 45 7.1 ESE 19 26 10 14 1008.8 1008.8 0.0
02/02:30pm 29.0 23.6 6.4 24 12.0 NNE 24 37 13 20 1008.7 1008.7 0.0
02/02:00pm 28.6 22.9 6.7 25 11.7 NE 26 37 14 20 1009.0 1009.0 0.0
02/01:38pm 27.7 21.6 6.5 26 11.2 NE 28 46 15 25 1009.5 1009.5 0.0
02/01:30pm 27.3 20.1 6.1 26 11.1 NE 33 48 18 26 1009.7 1009.7 0.0
02/01:00pm 28.4 22.8 7.1 26 11.4 NE 26 41 14 22 1010.2 1010.2 0.0
02/12:30pm 28.4 23.8 8.1 28 11.0 NE 22 33 12 18 1010.9 1010.9 0.0
02/12:17pm 26.9 20.5 6.9 28 10.6 NNE 30 48 16 26 1011.2 1011.2 0.0
02/12:00pm 29.4 23.0 8.5 27 11.5 NE 32 46 17 25 1011.3 1011.3 0.0
02/11:42am 28.6 22.3 7.2 26 11.5 NE 30 48 16 26 1011.6 1011.6 0.0
02/11:30am 27.6 20.7 6.4 26 11.1 NE 32 46 17 25 1012.0 1012.0 0.0
02/11:00am 26.7 21.0 6.7 28 10.5 NNE 26 41 14 22 1012.7 1012.7 0.0
02/10:30am 23.2 17.2 6.9 35 8.4 NNE 28 37 15 20 1013.6 1013.6 0.0
02/10:00am 21.2 16.4 7.4 41 7.1 NNE 22 37 12 20 1013.9 1013.9 0.0
02/09:30am 18.2 13.8 7.3 49 5.5 NNE 20 32 11 17 1014.7 1014.7 0.0
02/09:00am 15.8 9.8 8.8 63 3.6 ENE 30 39 16 21 1014.1 1014.1 0.0
02/08:55am 15.6 10.5 9.3 66 3.3 ENE 26 39 14 21 1014.5 1014.5 0.0
02/08:30am 14.3 10.3 10.3 77 2.1 ENE 22 32 12 17 1016.6 1016.5 0.0
02/08:00am 13.6 11.2 11.5 87 1.1 NE 15 20 8 11 1017.9 1017.8 0.0
02/07:30am 13.4 11.0 11.5 88 1.0 NE 15 19 8 10 1018.1 1018.0 0.0
02/07:00am 12.3 11.3 12.3 100 0.0 NE 9 11 5 6 1018.8 1018.7 0.0
02/06:30am 11.7 10.9 11.7 100 0.0 NNE 7 13 4 7 1019.1 1019.0 0.0
02/06:00am 11.3 9.2 11.3 100 0.0 NE 13 17 7 9 1018.3 1018.2 0.0
02/05:30am 11.7 10.1 11.7 100 0.0 ENE 11 13 6 7 1017.6 1017.5 0.0
02/05:00am 12.1 11.0 12.1 100 0.0 ENE 9 11 5 6 1017.6 1017.5 0.0
02/04:30am 12.0 11.9 12.0 100 0.0 NE 4 7 2 4 1017.9 1017.8 0.0
02/04:00am 12.3 12.3 12.3 100 0.0 SE 4 4 2 2 1017.5 1017.4 0.0
02/03:30am 12.1 12.0 12.1 100 0.0 N 4 7 2 4 1017.7 1017.6 0.0
02/03:00am 11.1 10.7 11.1 100 0.0 SW 4 7 2 4 1017.9 1017.8 0.0
02/02:30am 10.4 8.9 10.4 100 0.0 NW 9 17 5 9 1017.5 1017.4 0.0
02/02:00am 9.9 7.8 9.9 100 0.0 NE 11 13 6 7 1016.4 1016.3 0.0
02/01:30am 9.8 7.7 9.8 100 0.0 NE 11 13 6 7 1016.5 1016.4 0.0
02/01:00am 10.3 8.3 10.3 100 0.0 NE 11 13 6 7 1017.0 1016.9 0.0
02/12:30am 10.8 7.5 10.8 100 0.0 ENE 19 22 10 12 1017.2 1017.1 0.0
02/12:00am 10.8 8.6 10.8 100 0.0 ENE 13 15 7 8 1018.5 1018.4 0.0
 
Date/Time
WST
Temp
°C
App
Temp
°C
Dew
Point
Rel
Hum
%
Delta-T
°C
Wind Press
QNH
hPa
Press
MSL
hPa
Rain
since 9 am
mm
Dir
 
Spd
km/h
Gust
km/h
Spd
kts
Gust
kts
01/11:30pm 10.9 9.5 10.9 100 0.0 NNE 9 11 5 6 1019.2 1019.1 0.0
01/11:00pm 11.2 10.4 11.2 100 0.0 NNE 6 7 3 4 1019.5 1019.4 0.0
01/10:30pm 11.3 10.4 11.3 100 0.0 NE 7 9 4 5 1019.6 1019.5 0.0
01/10:00pm 11.4 10.5 11.4 100 0.0 NNE 7 11 4 6 1020.0 1019.9 0.0
01/09:30pm 12.7 12.2 12.7 100 0.0 NNE 7 9 4 5 1020.2 1020.1 0.0
01/09:00pm 12.6 11.7 12.6 100 0.0 NE 9 11 5 6 1020.4 1020.3 0.0
01/08:30pm 12.8 11.6 12.8 100 0.0 ENE 11 15 6 8 1020.6 1020.5 0.0
01/08:00pm 13.0 12.6 13.0 100 0.0 NE 7 15 4 8 1020.8 1020.7 0.0
01/07:30pm 13.2 12.1 13.2 100 0.0 ENE 11 19 6 10 1020.6 1020.5 0.0
01/07:00pm 13.5 12.9 13.5 100 0.0 ENE 9 15 5 8 1020.7 1020.6 0.0
01/06:30pm 13.9 11.5 13.9 100 0.0 E 19 26 10 14 1020.2 1020.1 0.0
01/06:00pm 14.2 12.3 14.2 100 0.0 E 17 24 9 13 1020.3 1020.2 0.0
01/05:30pm 14.7 11.7 14.7 100 0.0 E 24 35 13 19 1020.2 1020.1 0.0
01/05:00pm 15.1 11.6 14.6 97 0.3 E 26 37 14 20 1019.8 1019.7 0.0
01/04:30pm 15.6 12.1 14.5 93 0.6 ESE 26 39 14 21 1020.0 1019.9 0.0
01/04:00pm 15.9 12.0 14.3 90 0.9 ESE 28 41 15 22 1019.8 1019.7 0.0
01/03:30pm 16.4 12.4 14.1 86 1.3 ESE 28 43 15 23 1019.8 1019.7 0.0
01/03:00pm 16.3 12.1 13.4 83 1.6 ESE 28 41 15 22 1019.9 1019.8 0.0
01/02:30pm 16.6 12.3 13.3 81 1.9 ESE 28 41 15 22 1020.2 1020.1 0.0
01/02:00pm 16.5 11.4 13.2 81 1.8 ESE 32 41 17 22 1020.5 1020.4 0.0
01/01:30pm 16.3 11.5 12.8 80 1.9 ESE 30 43 16 23 1020.9 1020.8 0.0
01/01:00pm 16.5 11.9 12.3 76 2.3 ESE 28 39 15 21 1021.0 1020.9 0.0
01/12:30pm 16.4 11.3 12.0 75 2.4 ESE 30 41 16 22 1021.7 1021.6 0.0
01/12:00pm 16.6 11.8 11.7 73 2.7 ESE 28 35 15 19 1022.3 1022.2 0.0
01/11:30am 15.9 11.3 11.1 73 2.6 ESE 26 37 14 20 1022.8 1022.7 0.0
01/11:00am 16.1 12.2 10.8 71 2.8 ESE 22 30 12 16 1023.2 1023.1 0.0
01/10:30am 17.5 14.0 10.9 65 3.6 SE 20 26 11 14 1023.5 1023.4 0.0
01/10:00am 16.9 13.6 9.6 62 3.8 ENE 17 24 9 13 1024.1 1024.0 0.0
01/09:30am 16.0 13.7 10.5 70 2.9 NE 13 20 7 11 1024.4 1024.3 0.0
01/09:00am 14.3 11.5 10.1 76 2.2 NE 15 24 8 13 1024.8 1024.7 0.0
01/08:30am 12.8 9.6 10.0 83 1.4 ENE 17 28 9 15 1025.0 1024.9 0.0
01/08:00am 11.7 8.4 10.9 95 0.4 ENE 19 26 10 14 1025.0 1024.9 0.0
01/07:30am 10.6 8.3 10.6 100 0.0 ENE 13 20 7 11 1025.1 1025.1 0.0
01/07:00am 7.7 5.5 7.7 100 0.0 NE 9 13 5 7 1025.3 1025.3 0.0
01/06:30am 5.6 2.9 5.6 100 0.0 ENE 9 11 5 6 1025.3 1025.3 0.0
01/06:00am 4.9 1.7 4.9 100 0.0 ENE 11 11 6 6 1025.2 1025.2 0.0
01/05:30am 4.4 1.5 4.4 100 0.0 NE 9 11 5 6 1025.1 1025.1 0.0
01/05:00am 4.5 1.6 4.5 100 0.0 ENE 9 9 5 5 1024.9 1024.9 0.0
01/04:30am 4.6 2.1 4.6 100 0.0 NE 7 9 4 5 1024.9 1024.9 0.0
01/04:00am 5.0 2.2 5.0 100 0.0 NE 9 13 5 7 1024.8 1024.8 0.0
01/03:30am 5.1 1.9 5.1 100 0.0 NE 11 11 6 6 1024.9 1024.9 0.0
01/03:00am 5.5 2.4 5.5 100 0.0 ENE 11 13 6 7 1025.0 1025.0 0.0
01/02:30am 5.4 2.7 5.4 100 0.0 NE 9 11 5 6 1024.9 1024.9 0.0
01/02:00am 5.9 3.6 5.9 100 0.0 NE 7 9 4 5 1024.9 1024.9 0.0
01/01:30am 6.0 3.4 6.0 100 0.0 NE 9 9 5 5 1025.1 1025.1 0.0
01/01:00am 6.4 3.9 6.4 100 0.0 NNE 9 11 5 6 1025.4 1025.4 0.0
01/12:30am 7.0 4.6 7.0 100 0.0 NNE 9 11 5 6 1025.4 1025.4 0.0
01/12:00am 7.1 4.7 7.1 100 0.0 NNE 9 11 5 6 1025.6 1025.6 0.0
 
Date/Time
WST
Temp
°C
App
Temp
°C
Dew
Point
Rel
Hum
%
Delta-T
°C
Wind Press
QNH
hPa
Press
MSL
hPa
Rain
since 9 am
mm
Dir
 
Spd
km/h
Gust
km/h
Spd
kts
Gust
kts
30/11:30pm 7.2 4.8 7.2 100 0.0 NNE 9 9 5 5 1025.6 1025.6 0.0
30/11:00pm 7.5 5.6 7.5 100 0.0 NNE 7 9 4 5 1025.5 1025.5 0.0
30/10:30pm 8.0 6.4 8.0 100 0.0 NE 6 7 3 4 1025.4 1025.4 0.0
30/10:00pm 7.9 6.1 7.9 100 0.0 NE 7 9 4 5 1025.4 1025.4 0.0
30/09:30pm 8.7 7.3 8.7 100 0.0 NE 6 7 3 4 1025.3 1025.3 0.0
30/09:00pm 9.3 8.0 9.3 100 0.0 NE 6 6 3 3 1025.3 1025.3 0.0
30/08:30pm 10.5 9.4 10.0 97 0.3 NE 6 7 3 4 1025.2 1025.2 0.0
30/08:00pm 12.5 11.2 11.2 92 0.7 ESE 9 15 5 8 1025.2 1025.2 0.0
30/07:30pm 12.6 10.8 11.0 90 0.8 ESE 11 15 6 8 1025.0 1025.0 0.0
30/07:00pm 12.4 10.9 10.5 88 1.0 ESE 9 15 5 8 1024.6 1024.6 0.0
30/06:30pm 12.5 10.8 9.9 84 1.3 SE 9 13 5 7 1024.3 1024.3 0.0
30/06:00pm 12.7 10.8 9.2 79 1.8 ESE 9 13 5 7 1024.0 1024.0 0.0
30/05:30pm 13.7 11.5 9.2 74 2.3 SE 11 17 6 9 1024.0 1024.0 0.0
30/05:00pm 14.3 11.6 8.9 70 2.7 SE 13 20 7 11 1023.8 1023.8 0.0
30/04:30pm 14.7 11.6 8.9 68 3.0 SE 15 22 8 12 1023.7 1023.7 0.0
30/04:00pm 15.0 11.5 8.9 67 3.1 SE 17 22 9 12 1023.5 1023.5 0.0
30/03:30pm 15.3 12.3 9.2 67 3.1 SE 15 20 8 11 1023.3 1023.3 0.0
30/03:00pm 15.6 12.6 9.3 66 3.2 SSE 15 20 8 11 1023.1 1023.1 0.0
30/02:30pm 14.8 11.3 8.7 67 3.1 SSE 17 26 9 14 1023.2 1023.2 0.0
30/02:00pm 15.4 12.5 9.5 68 3.0 S 15 20 8 11 1023.1 1023.1 0.0
30/01:30pm 15.2 12.1 8.9 66 3.2 S 15 22 8 12 1023.2 1023.2 0.0
30/01:00pm 14.8 11.8 9.4 70 2.8 S 15 20 8 11 1023.4 1023.4 0.0
30/12:30pm 14.6 12.8 10.8 78 2.0 S 11 20 6 11 1023.5 1023.5 0.0
30/12:00pm 13.8 12.5 11.3 85 1.3 S 9 15 5 8 1023.8 1023.8 0.0
30/11:30am 14.3 13.1 11.5 83 1.5 S 9 19 5 10 1023.9 1023.9 0.0
30/11:00am 14.3 12.7 11.6 84 1.4 S 11 17 6 9 1023.8 1023.8 0.0
30/10:30am 14.4 12.8 12.8 90 0.9 SW 13 20 7 11 1023.8 1023.8 0.0
30/10:00am 13.4 12.4 13.4 100 0.0 SW 11 19 6 10 1023.8 1023.8 0.0
30/09:30am 12.8 12.0 12.8 100 0.0 WSW 9 17 5 9 1023.7 1023.7 0.0
30/09:00am 11.8 10.3 11.8 100 0.0 W 11 17 6 9 1023.6 1023.6 0.6
30/08:30am 11.4 10.1 11.4 100 0.0 W 9 17 5 9 1023.4 1023.4 0.4
30/08:00am 12.1 9.3 11.2 94 0.5 WSW 17 22 9 12 1023.1 1023.1 0.0
30/07:30am 11.7 9.7 11.4 98 0.2 W 13 17 7 9 1022.7 1022.7 0.0
30/07:00am 11.2 8.6 10.6 96 0.3 W 15 19 8 10 1022.3 1022.3 0.0
30/06:30am 10.9 9.7 10.3 96 0.3 W 7 13 4 7 1022.2 1022.2 0.0
30/06:00am 10.1 8.8 10.0 99 0.1 NNW 7 11 4 6 1021.7 1021.7 0.0
30/05:30am 10.5 9.0 10.5 100 0.0 WNW 9 13 5 7 1021.4 1021.4 0.0
30/05:00am 11.2 9.4 11.0 99 0.1 W 11 19 6 10 1021.0 1021.0 0.0
30/04:30am 11.5 8.7 11.3 99 0.1 WSW 17 24 9 13 1020.7 1020.7 0.0
30/04:00am 11.0 8.5 11.0 100 0.0 WSW 15 22 8 12 1020.1 1020.0 0.0
30/03:30am 8.8 6.8 8.8 100 0.0 NW 9 13 5 7 1019.8 1019.7 0.0
30/03:00am 9.5 6.8 8.9 96 0.3 W 13 17 7 9 1019.4 1019.3 0.0
30/02:30am 10.2 7.5 9.0 92 0.6 W 13 17 7 9 1019.1 1019.0 0.0
30/02:00am 11.6 7.9 10.2 91 0.7 WSW 20 28 11 15 1019.0 1018.9 0.0
30/01:30am 11.6 8.1 10.2 91 0.7 WSW 19 30 10 16 1019.1 1019.0 0.0
30/01:00am 11.7 7.5 9.8 88 1.0 WSW 22 30 12 16 1019.1 1019.0 0.0
30/12:30am 10.4 8.0 8.8 90 0.8 W 11 17 6 9 1019.0 1018.9 0.0
30/12:00am 10.6 8.1 8.2 85 1.2 W 11 15 6 8 1018.9 1018.8 0.0
 
Date/Time
WST
Temp
°C
App
Temp
°C
Dew
Point
Rel
Hum
%
Delta-T
°C
Wind Press
QNH
hPa
Press
MSL
hPa
Rain
since 9 am
mm
Dir
 
Spd
km/h
Gust
km/h
Spd
kts
Gust
kts
29/11:30pm 11.3 8.9 8.7 84 1.3 W 11 15 6 8 1018.6 1018.5 0.0
29/11:00pm 12.7 9.6 9.0 78 1.9 W 15 24 8 13 1018.5 1018.4 0.0
29/10:30pm 13.3 9.6 9.5 78 1.9 WSW 19 26 10 14 1018.2 1018.1 0.0
29/10:00pm 14.1 9.8 10.7 80 1.8 WSW 24 37 13 20 1018.3 1018.2 0.0
29/09:30pm 14.4 11.0 11.4 82 1.6 SW 20 30 11 16 1018.2 1018.1 0.0
29/09:00pm 14.4 9.9 11.4 82 1.6 SW 26 37 14 20 1018.2 1018.1 0.0
29/08:30pm 14.4 10.5 12.1 86 1.2 SW 24 35 13 19 1018.2 1018.1 0.0
29/08:00pm 14.4 10.6 12.4 88 1.1 SW 24 32 13 17 1017.5 1017.4 0.0
29/07:30pm 14.2 10.9 12.8 91 0.8 SSW 22 28 12 15 1016.9 1016.8 0.0
29/07:00pm 14.1 11.3 12.7 91 0.8 SW 19 26 10 14 1016.4 1016.3 0.0
29/06:30pm 13.8 10.6 12.0 89 1.0 SW 20 26 11 14 1015.8 1015.7 0.0

Other Formats:

Comma delimited format used in spreadsheet applications
http://www.bom.gov.au/fwo/IDW60801/IDW60801.95635.axf

JavaScript Object Notation format (JSON) in row-major order
http://www.bom.gov.au/fwo/IDW60801/IDW60801.95635.json